createdAt,value
2023-01-11T00:01:55.773Z,97217.88
2023-01-11T00:04:28.194Z,97211.13
2023-01-11T00:06:54.885Z,97209.09
2023-01-11T00:09:21.434Z,97200.16
2023-01-11T00:11:48.027Z,97181.75
2023-01-11T00:14:14.839Z,97175.72
2023-01-11T00:16:41.517Z,97149.06
2023-01-11T00:19:08.110Z,97159.44
2023-01-11T00:21:34.734Z,97154.09
2023-01-11T00:24:01.245Z,97152.81
2023-01-11T00:26:27.929Z,97159.72
2023-01-11T00:28:54.911Z,97157.69
2023-01-11T00:31:21.561Z,97162.44
2023-01-11T00:33:48.095Z,97150.78
2023-01-11T00:36:14.700Z,97171.50
2023-01-11T00:38:44.219Z,97164.59
2023-01-11T00:41:30.452Z,97168.03
2023-01-11T00:44:15.722Z,97170.66
2023-01-11T00:47:01.059Z,97173.38
2023-01-11T00:49:27.650Z,97174.69
2023-01-11T00:51:54.180Z,97171.97
2023-01-11T00:54:20.934Z,97173.97
2023-01-11T00:56:47.481Z,97174.69
2023-01-11T00:59:14.190Z,97171.97
2023-01-11T01:01:40.833Z,97175.41
2023-01-11T01:04:07.595Z,97167.91
2023-01-11T01:06:34.162Z,97163.16
2023-01-11T01:09:00.882Z,97156.97
2023-01-11T01:11:36.764Z,97148.75
2023-01-11T01:14:23.333Z,97150.19
2023-01-11T01:16:49.973Z,97142.56
2023-01-11T01:19:16.615Z,97146.75
2023-01-11T01:21:43.358Z,97146.75
2023-01-11T01:24:10.083Z,97158.41
2023-01-11T01:26:36.752Z,97155.66
2023-01-11T01:29:04.095Z,97158.41
2023-01-11T01:31:31.625Z,97149.47
2023-01-11T01:33:58.438Z,97169.34
2023-01-11T01:36:25.361Z,97157.69
2023-01-11T01:38:51.941Z,97144.72
2023-01-11T01:41:18.565Z,97150.91
2023-01-11T01:43:52.631Z,97160.56
2023-01-11T01:46:19.803Z,97157.97
2023-01-11T01:48:55.804Z,97151.06
2023-01-11T01:51:26.883Z,97165.47
2023-01-11T01:53:53.940Z,97155.25
2023-01-11T01:56:23.156Z,97162.72
2023-01-11T01:58:54.494Z,97156.53
2023-01-11T02:01:40.042Z,97146.31
2023-01-11T02:04:16.660Z,97138.81
2023-01-11T02:06:43.411Z,97151.19
2023-01-11T02:09:19.101Z,97147.75
2023-01-11T02:11:45.716Z,97134.06
2023-01-11T02:14:13.419Z,97142.28
2023-01-11T02:16:40.053Z,97145.00
2023-01-11T02:19:07.311Z,97146.31
2023-01-11T02:21:43.137Z,97132.03
2023-01-11T02:24:19.078Z,97137.50
2023-01-11T02:26:51.731Z,97121.81
2023-01-11T02:29:36.736Z,97138.22
2023-01-11T02:32:22.092Z,97122.53
2023-01-11T02:34:48.730Z,97127.28
2023-01-11T02:37:34.212Z,97140.25
2023-01-11T02:40:07.192Z,97132.03
2023-01-11T02:43:35.746Z,97146.44
2023-01-11T02:46:06.826Z,97137.66
2023-01-11T02:48:39.099Z,97136.94
2023-01-11T02:51:05.947Z,97133.47
2023-01-11T02:53:34.820Z,97123.25
2023-01-11T02:56:02.028Z,97126.13
2023-01-11T02:58:29.100Z,97116.47
2023-01-11T03:00:56.001Z,97110.44
2023-01-11T03:03:24.877Z,97111.75
2023-01-11T03:06:02.498Z,97112.59
2023-01-11T03:08:40.514Z,97115.31
2023-01-11T03:11:39.234Z,97107.69
2023-01-11T03:14:25.037Z,97104.97
2023-01-11T03:17:14.965Z,97102.06
2023-01-11T03:19:47.194Z,97110.44
2023-01-11T03:22:34.944Z,97116.03
2023-01-11T03:25:01.514Z,97105.81
2023-01-11T03:27:51.349Z,97097.00
2023-01-11T03:30:27.448Z,97112.72
2023-01-11T03:33:02.029Z,97114.88
2023-01-11T03:35:34.838Z,97107.38
2023-01-11T03:38:02.950Z,97099.91
2023-01-11T03:40:30.681Z,97071.94
2023-01-11T03:43:13.760Z,97088.50
2023-01-11T03:45:40.394Z,97074.09
2023-01-11T03:48:07.893Z,97069.34
2023-01-11T03:50:34.626Z,97065.88
2023-01-11T03:53:01.145Z,97074.81
2023-01-11T03:55:29.741Z,97073.66
2023-01-11T03:57:56.343Z,97084.00
2023-01-11T04:00:27.725Z,97081.97
2023-01-11T04:02:55.770Z,97086.03
2023-01-11T04:05:22.382Z,97081.25
2023-01-11T04:07:49.059Z,97086.88
2023-01-11T04:10:15.718Z,97063.69
2023-01-11T04:12:42.338Z,97069.16
2023-01-11T04:15:09.538Z,97068.44
2023-01-11T04:17:36.247Z,97070.47
2023-01-11T04:20:02.793Z,97067.13
2023-01-11T04:22:29.461Z,97072.03
2023-01-11T04:24:55.989Z,97061.06
2023-01-11T04:27:22.550Z,97063.81
2023-01-11T04:29:49.132Z,97060.50
2023-01-11T04:32:15.752Z,97052.41
2023-01-11T04:34:42.267Z,97036.00
2023-01-11T04:37:09.312Z,97044.94
2023-01-11T04:39:35.842Z,97049.09
2023-01-11T04:42:21.263Z,97045.03
2023-01-11T04:44:48.950Z,97051.25
2023-01-11T04:47:15.946Z,97051.84
2023-01-11T04:49:42.710Z,97051.25
2023-01-11T04:52:12.958Z,97035.56
2023-01-11T04:54:39.958Z,97045.91
2023-01-11T04:57:06.924Z,97056.28
2023-01-11T04:59:33.615Z,97051.50
2023-01-11T05:02:00.169Z,97054.97
2023-01-11T05:04:26.918Z,97048.78
2023-01-11T05:06:53.797Z,97060.44
2023-01-11T05:09:23.312Z,97060.59
2023-01-11T05:11:50.030Z,97062.03
2023-01-11T05:14:17.157Z,97057.41
2023-01-11T05:16:43.789Z,97052.66
2023-01-11T05:19:11.330Z,97040.38
2023-01-11T05:21:39.683Z,97048.00
2023-01-11T05:24:07.442Z,97041.94
2023-01-11T05:26:35.149Z,97050.88
2023-01-11T05:29:02.542Z,97041.38
2023-01-11T05:31:29.431Z,97049.72
2023-01-11T05:33:56.520Z,97040.19
2023-01-11T05:36:24.189Z,97034.84
2023-01-11T05:38:51.256Z,97034.97
2023-01-11T05:41:18.298Z,97031.63
2023-01-11T05:44:04.412Z,97025.59
2023-01-11T05:46:31.260Z,97019.53
2023-01-11T05:48:59.223Z,97022.25
2023-01-11T05:51:26.661Z,97022.25
2023-01-11T05:53:53.201Z,97011.44
2023-01-11T05:56:20.086Z,97006.81
2023-01-11T05:58:50.093Z,97006.22
2023-01-11T06:01:17.328Z,97008.50
2023-01-11T06:03:44.369Z,96998.25
2023-01-11T06:06:11.233Z,97001.84
2023-01-11T06:08:37.786Z,96995.63
2023-01-11T06:11:04.607Z,96990.16
2023-01-11T06:13:31.208Z,96989.56
2023-01-11T06:16:04.207Z,96984.22
2023-01-11T06:18:40.889Z,96979.47
2023-01-11T06:21:07.889Z,96985.06
2023-01-11T06:23:35.176Z,96988.66
2023-01-11T06:26:02.336Z,96985.31
2023-01-11T06:28:29.159Z,96986.03
2023-01-11T06:30:57.392Z,96985.44
2023-01-11T06:33:25.251Z,96991.06
2023-01-11T06:35:52.153Z,96992.13
2023-01-11T06:38:19.631Z,96985.34
2023-01-11T06:40:51.748Z,96984.75
2023-01-11T06:43:19.722Z,96972.31
2023-01-11T06:45:46.450Z,96971.53
2023-01-11T06:48:13.030Z,96973.63
2023-01-11T06:50:39.729Z,96968.50
2023-01-11T06:53:06.301Z,96962.25
2023-01-11T06:55:36.404Z,96969.84
2023-01-11T06:58:03.070Z,96950.13
2023-01-11T07:00:29.905Z,96944.84
2023-01-11T07:02:56.621Z,96954.50
2023-01-11T07:05:23.360Z,96940.53
2023-01-11T07:07:50.098Z,96934.78
2023-01-11T07:10:16.833Z,96937.75
2023-01-11T07:12:43.547Z,96932.94
2023-01-11T07:15:11.035Z,96938.22
2023-01-11T07:17:37.778Z,96935.31
2023-01-11T07:20:05.399Z,96947.34
2023-01-11T07:22:35.441Z,96943.59
2023-01-11T07:25:02.448Z,96930.16
2023-01-11T07:27:29.052Z,96943.25
2023-01-11T07:29:55.749Z,96939.47
2023-01-11T07:32:22.367Z,96939.75
2023-01-11T07:34:49.014Z,96941.88
2023-01-11T07:37:28.487Z,96941.28
2023-01-11T07:39:55.843Z,96945.72
2023-01-11T07:42:41.287Z,96961.69
2023-01-11T07:45:08.232Z,96954.31
2023-01-11T07:47:34.780Z,96957.78
2023-01-11T07:50:01.466Z,96958.50
2023-01-11T07:52:27.986Z,96951.84
2023-01-11T07:54:54.669Z,96947.78
2023-01-11T07:57:21.290Z,96939.47
2023-01-11T07:59:48.015Z,96938.03
2023-01-11T08:02:14.662Z,96947.69
2023-01-11T08:04:41.292Z,96948.50
2023-01-11T08:07:07.998Z,96949.97
2023-01-11T08:09:36.349Z,96942.47
2023-01-11T08:12:25.934Z,96965.09
2023-01-11T08:14:58.918Z,96958.75
2023-01-11T08:17:30.472Z,96949.81
2023-01-11T08:19:58.052Z,96945.78
2023-01-11T08:22:24.737Z,96953.41
2023-01-11T08:24:51.345Z,96947.34
2023-01-11T08:27:17.930Z,96969.50
2023-01-11T08:29:44.578Z,96946.28
2023-01-11T08:32:11.911Z,96936.78
2023-01-11T08:34:39.124Z,96968.81
2023-01-11T08:37:05.853Z,96957.97
2023-01-11T08:39:33.368Z,96964.88
2023-01-11T08:42:00.024Z,96957.50
2023-01-11T08:44:34.117Z,96969.31
2023-01-11T08:47:01.488Z,96970.59
2023-01-11T08:49:28.155Z,96974.06
2023-01-11T08:51:54.812Z,96982.28
2023-01-11T08:54:21.415Z,96977.50
2023-01-11T08:56:48.045Z,96976.09
2023-01-11T08:59:14.596Z,96978.94
2023-01-11T09:01:41.406Z,96994.81
2023-01-11T09:04:23.204Z,96988.72
2023-01-11T09:06:51.087Z,96994.94
2023-01-11T09:09:17.741Z,96986.59
2023-01-11T09:12:04.109Z,97002.31
2023-01-11T09:14:35.326Z,96989.91
2023-01-11T09:17:02.013Z,97013.28
2023-01-11T09:19:28.700Z,97007.03
2023-01-11T09:21:57.846Z,96994.09
2023-01-11T09:24:24.425Z,97012.78
2023-01-11T09:26:52.300Z,97012.06
2023-01-11T09:29:19.376Z,97013.50
2023-01-11T09:31:46.298Z,97015.69
2023-01-11T09:34:14.365Z,97020.56
2023-01-11T09:36:42.412Z,97019.13
2023-01-11T09:39:14.009Z,97023.28
2023-01-11T09:42:01.837Z,97023.28
2023-01-11T09:44:30.335Z,97026.88
2023-01-11T09:47:00.775Z,97029.50
2023-01-11T09:49:43.227Z,97030.22
2023-01-11T09:52:26.498Z,97035.09
2023-01-11T09:54:53.447Z,97031.78
2023-01-11T09:57:38.929Z,97041.88
2023-01-11T10:00:16.572Z,97039.63
2023-01-11T10:02:51.528Z,97036.72
2023-01-11T10:05:26.106Z,97024.22
2023-01-11T10:18:38.616Z,97041.16
2023-01-11T10:19:38.546Z,97044.03
2023-01-11T10:22:32.735Z,97044.75
2023-01-11T10:25:00.219Z,97044.16
2023-01-11T10:27:31.497Z,97040.00
2023-01-11T10:30:02.330Z,97030.59
2023-01-11T10:32:38.939Z,97023.69
2023-01-11T10:35:26.401Z,97024.28
2023-01-11T10:38:30.783Z,97037.00
2023-01-11T10:41:04.362Z,97032.81
2023-01-11T10:43:32.855Z,97036.28
2023-01-11T10:46:01.303Z,97037.81
2023-01-11T10:48:37.937Z,97044.03
2023-01-11T10:51:27.994Z,97033.66
2023-01-11T10:54:01.101Z,97040.44
2023-01-11T10:56:32.484Z,97039.63
2023-01-11T10:59:09.758Z,97039.72
2023-01-11T11:01:52.933Z,97045.34
2023-01-11T11:04:43.427Z,97044.03
2023-01-11T11:07:12.816Z,97041.09
2023-01-11T11:09:39.478Z,97055.25
2023-01-11T11:12:10.573Z,97051.06
2023-01-11T11:14:45.896Z,97045.59
2023-01-11T11:17:12.558Z,97042.25
2023-01-11T11:19:40.634Z,97054.69
2023-01-11T11:22:09.895Z,97054.78
2023-01-11T11:24:46.096Z,97038.34
2023-01-11T11:27:13.725Z,97050.75
2023-01-11T11:29:41.031Z,97050.16
2023-01-11T11:32:10.135Z,97043.94
2023-01-11T11:34:36.794Z,97048.88
2023-01-11T11:37:03.343Z,97044.81
2023-01-11T11:39:30.402Z,97048.97
2023-01-11T11:41:58.003Z,97028.63
2023-01-11T11:44:25.848Z,97047.81
2023-01-11T11:47:18.927Z,97050.56
2023-01-11T11:49:46.741Z,97051.97
2023-01-11T11:52:14.527Z,97062.22
2023-01-11T11:54:43.387Z,97067.00
2023-01-11T11:57:17.175Z,97060.06
2023-01-11T11:59:45.110Z,97068.88
2023-01-11T12:02:31.950Z,97088.78
2023-01-11T12:04:59.752Z,97080.28
2023-01-11T12:07:31.552Z,97087.66
2023-01-11T12:09:59.781Z,97080.50
2023-01-11T12:12:29.369Z,97084.28
2023-01-11T12:15:19.809Z,97091.78
2023-01-11T12:17:46.857Z,97101.16
2023-01-11T12:20:22.801Z,97091.50
2023-01-11T12:23:07.613Z,97090.19
2023-01-11T12:25:35.560Z,97087.72
2023-01-11T12:28:08.458Z,97099.41
2023-01-11T12:30:35.267Z,97100.97
2023-01-11T12:33:06.044Z,97103.13
2023-01-11T12:35:41.403Z,97098.38
2023-01-11T12:38:14.031Z,97100.97
2023-01-11T12:40:43.741Z,97101.69
2023-01-11T12:43:29.477Z,97103.72
2023-01-11T12:45:56.233Z,97098.38
2023-01-11T12:48:32.428Z,97098.38
2023-01-11T12:50:59.074Z,97099.69
2023-01-11T12:53:37.936Z,97103.13
2023-01-11T12:56:07.614Z,97103.13
2023-01-11T12:58:41.038Z,97110.91
2023-01-11T13:01:23.115Z,97108.88
2023-01-11T13:04:08.742Z,97118.41
2023-01-11T13:06:41.087Z,97126.47
2023-01-11T13:09:18.692Z,97124.34
2023-01-11T13:11:57.651Z,97133.25
2023-01-11T13:14:42.920Z,97126.34
2023-01-11T13:17:15.649Z,97146.97
2023-01-11T13:19:55.414Z,97139.34
2023-01-11T13:22:32.703Z,97128.38
2023-01-11T13:24:59.371Z,97133.84
2023-01-11T13:27:25.970Z,97147.56
2023-01-11T13:29:54.410Z,97146.13
2023-01-11T13:32:25.073Z,97138.63
2023-01-11T13:34:52.949Z,97148.28
2023-01-11T13:37:19.495Z,97142.06
2023-01-11T13:39:54.160Z,97142.78
2023-01-11T13:42:21.754Z,97149.00
2023-01-11T13:44:50.055Z,97155.06
2023-01-11T13:47:21.227Z,97157.66
2023-01-11T13:49:49.719Z,97150.16
2023-01-11T13:52:17.128Z,97157.09
2023-01-11T13:55:04.188Z,97169.47
2023-01-11T13:57:50.707Z,97155.19
2023-01-11T14:00:22.164Z,97164.72
2023-01-11T14:02:52.056Z,97172.94
2023-01-11T14:05:19.870Z,97172.22
2023-01-11T14:07:50.306Z,97174.34
2023-01-11T14:10:29.235Z,97186.19
2023-01-11T14:13:05.223Z,97186.75
2023-01-11T14:15:40.992Z,97189.38
2023-01-11T14:18:18.548Z,97189.38
2023-01-11T14:20:51.328Z,97181.75
2023-01-11T14:23:19.251Z,97185.75
2023-01-11T14:25:55.199Z,97203.50
2023-01-11T14:28:25.031Z,97206.25
2023-01-11T14:30:55.397Z,97194.56
2023-01-11T14:33:35.427Z,97207.13
2023-01-11T14:36:14.239Z,97198.31
2023-01-11T14:38:43.821Z,97203.78
2023-01-11T14:41:22.523Z,97209.84
2023-01-11T14:44:07.973Z,97216.50
2023-01-11T14:46:46.622Z,97216.38
2023-01-11T14:49:22.932Z,97216.94
2023-01-11T14:51:59.493Z,97211.31
2023-01-11T14:54:27.191Z,97231.81
2023-01-11T14:56:56.957Z,97222.16
2023-01-11T14:59:24.996Z,97238.00
2023-01-11T15:02:04.085Z,97236.09
2023-01-11T15:04:31.725Z,97233.38
2023-01-11T15:06:58.404Z,97236.56
2023-01-11T15:09:43.824Z,97239.31
2023-01-11T15:12:11.316Z,97233.84
2023-01-11T15:14:37.919Z,97245.34
2023-01-11T15:17:23.427Z,97239.88
2023-01-11T15:19:50.417Z,97243.34
2023-01-11T15:22:25.192Z,97258.91
2023-01-11T15:24:59.193Z,97255.47
2023-01-11T15:27:27.450Z,97263.56
2023-01-11T15:29:55.805Z,97253.88
2023-01-11T15:32:26.580Z,97266.84
2023-01-11T15:34:53.318Z,97281.13
2023-01-11T15:37:35.301Z,97281.84
2023-01-11T15:40:14.269Z,97287.94
2023-01-11T15:42:43.909Z,97302.22
2023-01-11T15:45:22.541Z,97296.72
2023-01-11T15:48:07.666Z,97299.31
2023-01-11T15:50:46.626Z,97299.31
2023-01-11T15:53:24.431Z,97299.19
2023-01-11T15:56:06.493Z,97309.41
2023-01-11T15:58:35.891Z,97307.97
2023-01-11T16:01:05.363Z,97309.25
2023-01-11T16:03:37.873Z,97327.72
2023-01-11T16:06:17.114Z,97333.19
2023-01-11T16:08:56.148Z,97322.97
2023-01-11T16:11:32.107Z,97336.66
2023-01-11T16:14:05.776Z,97346.16
2023-01-11T16:16:34.201Z,97344.16
2023-01-11T16:19:03.878Z,97326.28
2023-01-11T16:21:40.155Z,97337.94
2023-01-11T16:24:10.919Z,97344.16
2023-01-11T16:26:38.075Z,97358.56
2023-01-11T16:29:10.974Z,97365.50
2023-01-11T16:31:56.067Z,97365.50
2023-01-11T16:34:23.193Z,97364.03
2023-01-11T16:36:49.764Z,97366.06
2023-01-11T16:39:17.442Z,97378.31
2023-01-11T16:41:45.235Z,97386.53
2023-01-11T16:44:17.835Z,97377.47
2023-01-11T16:46:47.517Z,97399.38
2023-01-11T16:49:17.545Z,97401.38
2023-01-11T16:51:45.457Z,97405.69
2023-01-11T16:54:13.471Z,97415.66
2023-01-11T16:56:40.302Z,97423.44
2023-01-11T16:59:06.879Z,97425.00
2023-01-11T17:01:50.256Z,97425.28
2023-01-11T17:04:27.817Z,97435.81
2023-01-11T17:06:55.195Z,97440.72
2023-01-11T17:09:22.145Z,97442.31
2023-01-11T17:11:50.357Z,97447.94
2023-01-11T17:14:32.176Z,97438.41
2023-01-11T17:17:00.242Z,97459.72
2023-01-11T17:19:27.924Z,97450.94
2023-01-11T17:21:57.688Z,97453.81
2023-01-11T17:24:28.736Z,97453.97
2023-01-11T17:26:56.976Z,97447.91
2023-01-11T17:29:27.421Z,97454.13
2023-01-11T17:31:58.241Z,97455.56
2023-01-11T17:34:35.353Z,97454.84
2023-01-11T17:37:04.213Z,97466.50
2023-01-11T17:39:32.639Z,97477.47
2023-01-11T17:42:19.209Z,97484.25
2023-01-11T17:45:04.472Z,97498.53
2023-01-11T17:47:31.362Z,97503.88
2023-01-11T17:49:59.144Z,97502.44
2023-01-11T17:52:26.019Z,97501.00
2023-01-11T17:55:01.736Z,97495.50
2023-01-11T17:57:28.444Z,97501.00
2023-01-11T18:00:13.812Z,97505.03
2023-01-11T18:02:40.501Z,97501.53
2023-01-11T18:05:12.241Z,97523.34
2023-01-11T18:07:41.825Z,97515.81
2023-01-11T18:10:16.699Z,97517.84
2023-01-11T18:12:44.583Z,97532.28
2023-01-11T18:15:17.036Z,97539.78
2023-01-11T18:17:43.656Z,97546.56
2023-01-11T18:20:16.090Z,97545.13
2023-01-11T18:22:43.498Z,97547.13
2023-01-11T18:25:16.107Z,97555.91
2023-01-11T18:27:46.474Z,97553.88
2023-01-11T18:30:31.722Z,97554.63
2023-01-11T18:32:58.806Z,97541.50
2023-01-11T18:35:25.745Z,97547.56
2023-01-11T18:37:52.539Z,97543.38
2023-01-11T18:40:19.418Z,97539.91
2023-01-11T18:42:46.369Z,97535.72
2023-01-11T18:45:13.231Z,97535.72
2023-01-11T18:47:39.990Z,97542.50
2023-01-11T18:50:06.809Z,97560.94
2023-01-11T18:52:33.416Z,97554.03
2023-01-11T18:55:00.039Z,97561.53
2023-01-11T18:57:26.854Z,97571.78
2023-01-11T18:59:53.836Z,97579.28
2023-01-11T19:04:53.129Z,97584.03
2023-01-11T19:07:19.752Z,97585.31
2023-01-11T19:09:46.463Z,97590.06
2023-01-11T19:12:13.252Z,97588.78
2023-01-11T19:14:40.335Z,97589.50
2023-01-11T19:17:10.497Z,97592.25
2023-01-11T19:19:37.275Z,97584.59
2023-01-11T19:22:03.976Z,97601.75
2023-01-11T19:24:30.808Z,97590.78
2023-01-11T19:26:57.399Z,97595.72
2023-01-11T19:29:24.701Z,97595.00
2023-01-11T19:31:55.894Z,97595.72
2023-01-11T19:34:22.807Z,97593.69
2023-01-11T19:36:50.227Z,97588.22
2023-01-11T19:39:16.995Z,97593.09
2023-01-11T19:41:54.016Z,97593.69
2023-01-11T19:44:26.985Z,97599.16
2023-01-11T19:47:10.419Z,97598.44
2023-01-11T19:49:39.849Z,97597.72
2023-01-11T19:52:13.758Z,97612.16
2023-01-11T19:54:44.430Z,97607.97
2023-01-11T19:57:20.404Z,97603.75
2023-01-11T19:59:47.986Z,97620.91
2023-01-11T20:02:19.155Z,97621.50
2023-01-11T20:04:48.299Z,97620.91
2023-01-11T20:07:15.077Z,97620.78
2023-01-11T20:09:41.785Z,97613.13
2023-01-11T20:12:09.179Z,97615.16
2023-01-11T20:14:36.591Z,97605.47
2023-01-11T20:17:03.300Z,97601.47
2023-01-11T20:19:30.142Z,97604.19
2023-01-11T20:21:56.785Z,97607.66
2023-01-11T20:24:29.922Z,97602.75
2023-01-11T20:26:57.483Z,97619.91
2023-01-11T20:29:24.192Z,97619.16
2023-01-11T20:31:50.873Z,97606.78
2023-01-11T20:34:18.212Z,97600.59
2023-01-11T20:36:45.001Z,97599.84
2023-01-11T20:39:11.756Z,97601.88
2023-01-11T20:41:47.423Z,97605.34
2023-01-11T20:44:30.994Z,97603.19
2023-01-11T20:46:59.413Z,97605.19
2023-01-11T20:49:27.410Z,97610.69
2023-01-11T20:51:54.018Z,97621.63
2023-01-11T20:54:21.854Z,97613.41
2023-01-11T20:56:48.993Z,97617.44
2023-01-11T20:59:18.411Z,97614.84
2023-01-11T21:01:48.660Z,97610.09
2023-01-11T21:04:16.493Z,97612.84
2023-01-11T21:06:43.829Z,97615.56
2023-01-11T21:09:10.517Z,97610.81
2023-01-11T21:14:12.170Z,97605.91
2023-01-11T21:16:42.484Z,97599.72
2023-01-11T21:19:10.893Z,97587.31
2023-01-11T21:21:37.575Z,97594.25
2023-01-11T21:24:04.950Z,97585.44
2023-01-11T21:26:32.124Z,97582.00
2023-01-11T21:29:00.035Z,97584.72
2023-01-11T21:31:27.586Z,97574.50
2023-01-11T21:33:54.233Z,97558.06
2023-01-11T21:36:22.153Z,97560.78
2023-01-11T21:38:48.914Z,97557.47
2023-01-11T21:41:19.805Z,97545.22
2023-01-11T21:43:47.817Z,97557.47
2023-01-11T21:46:17.458Z,97554.03
2023-01-11T21:48:44.335Z,97556.75
2023-01-11T21:51:13.084Z,97556.75
2023-01-11T21:53:43.766Z,97555.91
2023-01-11T21:56:10.574Z,97551.59
2023-01-11T21:58:37.155Z,97551.13
2023-01-11T22:01:11.180Z,97563.22
2023-01-11T22:03:37.926Z,97558.34
2023-01-11T22:06:04.716Z,97580.09
2023-01-11T22:08:35.510Z,97565.66
2023-01-11T22:11:03.081Z,97567.00
2023-01-11T22:13:30.067Z,97576.22
2023-01-11T22:16:07.019Z,97571.16
2023-01-11T22:18:34.411Z,97577.22
2023-01-11T22:21:08.129Z,97569.00
2023-01-11T22:23:34.957Z,97564.81
2023-01-11T22:26:05.452Z,97573.03
2023-01-11T22:28:32.281Z,97569.56
2023-01-11T22:31:05.389Z,97568.13
2023-01-11T22:33:32.081Z,97572.31
2023-01-11T22:35:58.657Z,97581.81
2023-01-11T22:38:25.253Z,97571.44
2023-01-11T22:40:51.848Z,97574.31
2023-01-11T22:43:18.460Z,97577.06
2023-01-11T22:45:45.261Z,97564.69
2023-01-11T22:48:11.943Z,97566.69
2023-01-11T22:50:38.649Z,97580.94
2023-01-11T22:53:05.246Z,97587.13
2023-01-11T22:55:33.075Z,97587.00
2023-01-11T22:57:59.740Z,97583.53
2023-01-11T23:00:26.293Z,97570.44
2023-01-11T23:02:53.067Z,97579.34
2023-01-11T23:05:19.735Z,97570.44
2023-01-11T23:07:46.388Z,97581.38
2023-01-11T23:10:13.696Z,97581.06
2023-01-11T23:12:58.819Z,97582.50
2023-01-11T23:15:25.517Z,97575.59
2023-01-11T23:17:52.042Z,97578.88
2023-01-11T23:20:18.632Z,97579.78
2023-01-11T23:22:45.199Z,97564.06
2023-01-11T23:25:11.886Z,97566.94
2023-01-11T23:27:38.516Z,97565.66
2023-01-11T23:30:05.520Z,97556.00
2023-01-11T23:32:32.104Z,97576.63
2023-01-11T23:34:58.760Z,97553.25
2023-01-11T23:37:25.317Z,97551.81
2023-01-11T23:39:51.883Z,97564.19
2023-01-11T23:42:27.328Z,97547.78
2023-01-11T23:44:54.405Z,97553.25
2023-01-11T23:47:21.851Z,97550.50
2023-01-11T23:49:49.683Z,97561.47
2023-01-11T23:52:17.053Z,97564.94
2023-01-11T23:54:45.564Z,97549.78
2023-01-11T23:57:12.508Z,97556.00
2023-01-11T23:59:39.676Z,97557.28
